EXS73KS EGBB-LEMG
Flight info
| Callsign | EXS73KS |
|---|---|
| Flight time | 2h 26m |
| Altitude | 37000 |
| Route | DCT MOSUN N92 ZESPE DCT PACSE DCT TONQU DCT SALCO DCT GOPIN DCT DELOG DCT CRISA N864 VULPE |
| Aircraft | B738/M-SDE2E3FGHIRWXY/LB1 |
Departure
| Time | 2026-05-06 15:55 |
|---|---|
| Airport | Birmingham Airport (EGBB) |
Arrival
| Time | 2026-05-06 18:22 |
|---|---|
| Airport | Málaga-Costa del Sol Airport (LEMG) |
| Time | Latitude | Longitude | Altitude | Speed | Heading |
|---|---|---|---|---|---|
| 2026-05-06 15:55 | 52.49281 | -1.79089 | 2256 ft | 204 kts | 328° |
| 2026-05-06 15:55 | 52.50464 | -1.80450 | 2612 ft | 212 kts | 326° |
| 2026-05-06 15:56 | 52.51488 | -1.82218 | 2968 ft | 225 kts | 300° |
| 2026-05-06 15:56 | 52.51793 | -1.84732 | 3550 ft | 227 kts | 269° |
| 2026-05-06 15:56 | 52.51545 | -1.87371 | 3871 ft | 245 kts | 258° |
| 2026-05-06 15:56 | 52.50928 | -1.90038 | 4115 ft | 263 kts | 238° |
| 2026-05-06 15:57 | 52.49503 | -1.91947 | 4501 ft | 270 kts | 204° |
| 2026-05-06 15:57 | 52.47768 | -1.93168 | 5023 ft | 273 kts | 204° |
| 2026-05-06 15:57 | 52.46029 | -1.94421 | 5563 ft | 272 kts | 204° |
| 2026-05-06 15:57 | 52.44284 | -1.95679 | 6029 ft | 275 kts | 205° |
| 2026-05-06 15:58 | 52.42533 | -1.96955 | 6537 ft | 277 kts | 205° |
| 2026-05-06 15:58 | 52.40751 | -1.98260 | 6903 ft | 282 kts | 205° |
| 2026-05-06 15:58 | 52.38967 | -1.99567 | 7406 ft | 281 kts | 206° |
| 2026-05-06 15:58 | 52.37144 | -2.00758 | 7850 ft | 284 kts | 195° |
| 2026-05-06 15:59 | 52.35215 | -2.01292 | 8286 ft | 286 kts | 189° |
| 2026-05-06 15:59 | 52.33241 | -2.01741 | 8707 ft | 289 kts | 189° |
| 2026-05-06 15:59 | 52.31234 | -2.02204 | 9125 ft | 291 kts | 189° |
| 2026-05-06 15:59 | 52.29226 | -2.02668 | 9566 ft | 293 kts | 189° |
| 2026-05-06 16:00 | 52.27200 | -2.03133 | 9988 ft | 295 kts | 189° |
| 2026-05-06 16:00 | 52.25161 | -2.03601 | 10663 ft | 300 kts | 189° |
| 2026-05-06 16:00 | 52.23010 | -2.04095 | 10873 ft | 324 kts | 189° |
| 2026-05-06 16:00 | 52.20706 | -2.04633 | 11127 ft | 343 kts | 192° |
| 2026-05-06 16:01 | 52.18417 | -2.05820 | 11660 ft | 349 kts | 209° |
| 2026-05-06 16:01 | 52.16434 | -2.07994 | 12427 ft | 348 kts | 219° |
| 2026-05-06 16:01 | 52.14491 | -2.10378 | 13182 ft | 351 kts | 219° |
| 2026-05-06 16:01 | 52.12530 | -2.12790 | 13893 ft | 355 kts | 219° |
| 2026-05-06 16:02 | 52.10548 | -2.15225 | 14542 ft | 359 kts | 219° |
| 2026-05-06 16:02 | 52.08549 | -2.17677 | 15217 ft | 361 kts | 219° |
| 2026-05-06 16:02 | 52.06538 | -2.20139 | 15886 ft | 364 kts | 219° |
| 2026-05-06 16:02 | 52.04508 | -2.22620 | 16551 ft | 367 kts | 219° |
| 2026-05-06 16:03 | 52.02460 | -2.25119 | 17180 ft | 370 kts | 219° |
| 2026-05-06 16:03 | 52.00397 | -2.27632 | 17849 ft | 372 kts | 218° |
| 2026-05-06 16:03 | 51.98346 | -2.30126 | 18474 ft | 375 kts | 218° |
| 2026-05-06 16:03 | 51.96308 | -2.32777 | 19019 ft | 377 kts | 223° |
| 2026-05-06 16:04 | 51.94373 | -2.35661 | 19577 ft | 379 kts | 225° |
| 2026-05-06 16:04 | 51.92445 | -2.38598 | 20137 ft | 382 kts | 225° |
| 2026-05-06 16:04 | 51.90506 | -2.41551 | 20691 ft | 384 kts | 225° |
| 2026-05-06 16:04 | 51.88545 | -2.44517 | 21222 ft | 387 kts | 225° |
| 2026-05-06 16:05 | 51.86603 | -2.47564 | 21700 ft | 390 kts | 231° |
| 2026-05-06 16:05 | 51.85001 | -2.51101 | 22227 ft | 391 kts | 238° |
| 2026-05-06 16:05 | 51.83536 | -2.54812 | 22751 ft | 393 kts | 239° |
| 2026-05-06 16:05 | 51.82092 | -2.58585 | 23248 ft | 396 kts | 240° |
| 2026-05-06 16:06 | 51.80664 | -2.62343 | 23699 ft | 399 kts | 240° |
| 2026-05-06 16:06 | 51.79212 | -2.66178 | 24134 ft | 401 kts | 240° |
| 2026-05-06 16:06 | 51.77756 | -2.70030 | 24571 ft | 402 kts | 240° |
| 2026-05-06 16:06 | 51.76300 | -2.73895 | 24990 ft | 404 kts | 240° |
| 2026-05-06 16:07 | 51.74841 | -2.77777 | 25388 ft | 407 kts | 240° |
| 2026-05-06 16:07 | 51.73368 | -2.81697 | 25849 ft | 408 kts | 240° |
| 2026-05-06 16:07 | 51.71894 | -2.85623 | 26255 ft | 410 kts | 240° |
| 2026-05-06 16:07 | 51.70414 | -2.89564 | 26646 ft | 412 kts | 240° |
| 2026-05-06 16:08 | 51.68785 | -2.93308 | 26991 ft | 416 kts | 230° |
| 2026-05-06 16:08 | 51.66647 | -2.96455 | 27359 ft | 421 kts | 218° |
| 2026-05-06 16:08 | 51.64144 | -2.98946 | 27737 ft | 425 kts | 208° |
| 2026-05-06 16:08 | 51.61367 | -3.00641 | 28076 ft | 430 kts | 199° |
| 2026-05-06 16:09 | 51.58483 | -3.01960 | 28429 ft | 432 kts | 198° |
| 2026-05-06 16:09 | 51.55595 | -3.03262 | 28748 ft | 434 kts | 198° |
| 2026-05-06 16:09 | 51.52680 | -3.04568 | 29041 ft | 437 kts | 198° |
| 2026-05-06 16:09 | 51.49745 | -3.05881 | 29316 ft | 439 kts | 198° |
| 2026-05-06 16:10 | 51.46793 | -3.07201 | 29627 ft | 441 kts | 198° |
| 2026-05-06 16:10 | 51.43838 | -3.08523 | 29944 ft | 442 kts | 198° |
| 2026-05-06 16:10 | 51.40910 | -3.09832 | 30213 ft | 444 kts | 198° |
| 2026-05-06 16:10 | 51.37926 | -3.11155 | 30474 ft | 445 kts | 197° |
| 2026-05-06 16:11 | 51.34899 | -3.12126 | 30801 ft | 447 kts | 191° |
| 2026-05-06 16:11 | 51.31822 | -3.12775 | 31181 ft | 445 kts | 189° |
| 2026-05-06 16:11 | 51.28746 | -3.13350 | 31505 ft | 445 kts | 189° |
| 2026-05-06 16:11 | 51.25669 | -3.13912 | 31767 ft | 446 kts | 189° |
| 2026-05-06 16:12 | 51.22583 | -3.14490 | 32060 ft | 446 kts | 189° |
| 2026-05-06 16:12 | 51.19510 | -3.15083 | 32412 ft | 444 kts | 189° |
| 2026-05-06 16:12 | 51.16442 | -3.15691 | 32765 ft | 443 kts | 189° |
| 2026-05-06 16:12 | 51.13386 | -3.16307 | 33068 ft | 443 kts | 189° |
| 2026-05-06 16:13 | 51.10335 | -3.16927 | 33352 ft | 442 kts | 190° |
| 2026-05-06 16:13 | 51.07281 | -3.17549 | 33661 ft | 442 kts | 190° |
| 2026-05-06 16:13 | 51.04234 | -3.18169 | 33970 ft | 441 kts | 190° |
| 2026-05-06 16:13 | 51.01234 | -3.18778 | 34212 ft | 441 kts | 190° |
| 2026-05-06 16:14 | 50.98186 | -3.19397 | 34404 ft | 442 kts | 190° |
| 2026-05-06 16:14 | 50.95135 | -3.20014 | 34601 ft | 443 kts | 189° |
| 2026-05-06 16:14 | 50.92082 | -3.20631 | 34818 ft | 442 kts | 189° |
| 2026-05-06 16:14 | 50.89025 | -3.21247 | 35048 ft | 442 kts | 189° |
| 2026-05-06 16:15 | 50.85973 | -3.21862 | 35241 ft | 443 kts | 189° |
| 2026-05-06 16:15 | 50.82908 | -3.22478 | 35416 ft | 444 kts | 189° |
| 2026-05-06 16:15 | 50.79848 | -3.23093 | 35645 ft | 443 kts | 189° |
| 2026-05-06 16:15 | 50.76832 | -3.23697 | 35851 ft | 443 kts | 189° |
| 2026-05-06 16:16 | 50.73770 | -3.24311 | 36038 ft | 444 kts | 189° |
| 2026-05-06 16:16 | 50.70702 | -3.24925 | 36202 ft | 445 kts | 189° |
| 2026-05-06 16:16 | 50.67633 | -3.25538 | 36395 ft | 444 kts | 189° |
| 2026-05-06 16:16 | 50.64566 | -3.26150 | 36595 ft | 444 kts | 189° |
| 2026-05-06 16:17 | 50.61496 | -3.26761 | 36733 ft | 445 kts | 189° |
| 2026-05-06 16:17 | 50.58422 | -3.27374 | 36868 ft | 446 kts | 189° |
| 2026-05-06 16:17 | 50.55337 | -3.27987 | 36986 ft | 447 kts | 189° |
| 2026-05-06 16:17 | 50.52238 | -3.28602 | 36978 ft | 450 kts | 189° |
| 2026-05-06 16:18 | 50.46091 | -3.29819 | 36988 ft | 446 kts | 189° |
| 2026-05-06 16:18 | 50.39955 | -3.31031 | 36989 ft | 443 kts | 189° |
| 2026-05-06 16:19 | 50.33841 | -3.32051 | 36987 ft | 441 kts | 187° |
| 2026-05-06 16:19 | 50.27729 | -3.32757 | 36998 ft | 440 kts | 186° |
| 2026-05-06 16:20 | 50.21663 | -3.33444 | 36999 ft | 440 kts | 186° |
| 2026-05-06 16:20 | 50.15542 | -3.34176 | 36999 ft | 442 kts | 186° |
| 2026-05-06 16:21 | 50.09402 | -3.34932 | 36999 ft | 444 kts | 186° |
| 2026-05-06 16:21 | 50.03231 | -3.35696 | 36999 ft | 446 kts | 186° |
| 2026-05-06 16:22 | 49.97069 | -3.36457 | 36999 ft | 448 kts | 186° |
| 2026-05-06 16:22 | 49.90832 | -3.37225 | 36987 ft | 450 kts | 186° |
| 2026-05-06 16:23 | 49.84581 | -3.37991 | 36990 ft | 451 kts | 186° |
| 2026-05-06 16:23 | 49.78313 | -3.38758 | 36989 ft | 452 kts | 186° |
| 2026-05-06 16:24 | 49.72086 | -3.39517 | 36986 ft | 452 kts | 186° |
| 2026-05-06 16:24 | 49.65829 | -3.40279 | 36982 ft | 450 kts | 186° |
| 2026-05-06 16:25 | 49.59590 | -3.41036 | 36982 ft | 449 kts | 186° |
| 2026-05-06 16:25 | 49.53370 | -3.41789 | 36981 ft | 447 kts | 186° |
| 2026-05-06 16:26 | 49.47172 | -3.42537 | 36974 ft | 446 kts | 186° |
| 2026-05-06 16:26 | 49.41037 | -3.43277 | 36978 ft | 445 kts | 186° |
| 2026-05-06 16:27 | 49.34872 | -3.44017 | 36981 ft | 444 kts | 186° |
| 2026-05-06 16:27 | 49.28718 | -3.44755 | 36981 ft | 443 kts | 186° |
| 2026-05-06 16:28 | 49.22567 | -3.45491 | 36977 ft | 443 kts | 186° |
| 2026-05-06 16:28 | 49.16458 | -3.46220 | 36983 ft | 443 kts | 186° |
| 2026-05-06 16:29 | 49.10301 | -3.46952 | 36982 ft | 444 kts | 186° |
| 2026-05-06 16:29 | 49.04130 | -3.47685 | 36986 ft | 445 kts | 186° |
| 2026-05-06 16:30 | 48.98996 | -3.48293 | 36986 ft | 446 kts | 186° |
| 2026-05-06 16:30 | 48.91801 | -3.49142 | 36993 ft | 447 kts | 186° |
| 2026-05-06 16:31 | 48.85599 | -3.49873 | 36995 ft | 447 kts | 186° |
| 2026-05-06 16:31 | 48.79384 | -3.50603 | 36997 ft | 448 kts | 186° |
| 2026-05-06 16:32 | 48.73161 | -3.51333 | 36992 ft | 449 kts | 186° |
| 2026-05-06 16:32 | 48.66934 | -3.52060 | 36992 ft | 449 kts | 186° |
| 2026-05-06 16:33 | 48.60748 | -3.52782 | 36995 ft | 449 kts | 186° |
| 2026-05-06 16:34 | 48.51413 | -3.53867 | 36978 ft | 448 kts | 186° |
| 2026-05-06 16:34 | 48.45203 | -3.54587 | 36978 ft | 447 kts | 186° |
| 2026-05-06 16:35 | 48.39043 | -3.55299 | 36972 ft | 447 kts | 186° |
| 2026-05-06 16:35 | 48.32848 | -3.56014 | 36969 ft | 446 kts | 186° |
| 2026-05-06 16:36 | 48.26665 | -3.56725 | 36975 ft | 445 kts | 186° |
| 2026-05-06 16:36 | 48.20484 | -3.57435 | 36969 ft | 445 kts | 186° |
| 2026-05-06 16:37 | 48.14350 | -3.58137 | 36966 ft | 445 kts | 186° |
| 2026-05-06 16:37 | 48.08171 | -3.58844 | 36961 ft | 446 kts | 186° |
| 2026-05-06 16:38 | 48.01982 | -3.59549 | 36961 ft | 446 kts | 186° |
| 2026-05-06 16:38 | 47.95795 | -3.60252 | 36963 ft | 446 kts | 186° |
| 2026-05-06 16:39 | 47.89604 | -3.60955 | 36963 ft | 446 kts | 186° |
| 2026-05-06 16:39 | 47.83450 | -3.61651 | 36954 ft | 447 kts | 186° |
| 2026-05-06 16:40 | 47.77254 | -3.62350 | 36967 ft | 446 kts | 186° |
| 2026-05-06 16:40 | 47.71059 | -3.63048 | 36959 ft | 447 kts | 186° |
| 2026-05-06 16:41 | 47.64901 | -3.63740 | 36975 ft | 447 kts | 186° |
| 2026-05-06 16:41 | 47.58697 | -3.64435 | 36961 ft | 447 kts | 186° |
| 2026-05-06 16:42 | 47.52492 | -3.65129 | 36962 ft | 447 kts | 186° |
| 2026-05-06 16:42 | 47.46281 | -3.65822 | 36968 ft | 447 kts | 186° |
| 2026-05-06 16:43 | 47.40072 | -3.66513 | 36976 ft | 448 kts | 186° |
| 2026-05-06 16:43 | 47.33895 | -3.67198 | 36975 ft | 448 kts | 186° |
| 2026-05-06 16:44 | 47.27678 | -3.67887 | 36976 ft | 448 kts | 186° |
| 2026-05-06 16:44 | 47.21456 | -3.68575 | 36983 ft | 448 kts | 186° |
| 2026-05-06 16:45 | 47.15231 | -3.69261 | 36979 ft | 449 kts | 186° |
| 2026-05-06 16:45 | 47.09045 | -3.69941 | 36979 ft | 449 kts | 186° |
| 2026-05-06 16:46 | 47.02819 | -3.70624 | 36986 ft | 449 kts | 186° |
| 2026-05-06 16:46 | 46.96591 | -3.71306 | 36986 ft | 449 kts | 186° |
| 2026-05-06 16:47 | 46.90361 | -3.71986 | 36981 ft | 449 kts | 186° |
| 2026-05-06 16:47 | 46.84136 | -3.72664 | 36988 ft | 448 kts | 186° |
| 2026-05-06 16:48 | 46.77954 | -3.73336 | 36990 ft | 448 kts | 186° |
| 2026-05-06 16:48 | 46.71738 | -3.74011 | 36994 ft | 448 kts | 186° |
| 2026-05-06 16:49 | 46.65527 | -3.74683 | 36991 ft | 448 kts | 186° |
| 2026-05-06 16:49 | 46.59318 | -3.75353 | 36992 ft | 447 kts | 186° |
| 2026-05-06 16:50 | 46.53153 | -3.76017 | 36990 ft | 447 kts | 186° |
| 2026-05-06 16:50 | 46.46949 | -3.76684 | 36993 ft | 447 kts | 186° |
| 2026-05-06 16:51 | 46.40748 | -3.77349 | 36994 ft | 447 kts | 186° |
| 2026-05-06 16:51 | 46.34546 | -3.78012 | 36994 ft | 447 kts | 186° |
| 2026-05-06 16:52 | 46.28388 | -3.78669 | 36989 ft | 447 kts | 186° |
| 2026-05-06 16:52 | 46.22186 | -3.79330 | 36996 ft | 447 kts | 186° |
| 2026-05-06 16:53 | 46.15984 | -3.79989 | 36996 ft | 447 kts | 186° |
| 2026-05-06 16:53 | 46.09776 | -3.80647 | 36995 ft | 447 kts | 186° |
| 2026-05-06 16:54 | 46.03564 | -3.81304 | 37003 ft | 448 kts | 186° |
| 2026-05-06 16:54 | 45.97386 | -3.81956 | 36999 ft | 448 kts | 186° |
| 2026-05-06 16:55 | 45.91164 | -3.82611 | 36999 ft | 449 kts | 186° |
| 2026-05-06 16:55 | 45.84938 | -3.83265 | 37005 ft | 449 kts | 186° |
| 2026-05-06 16:56 | 45.78706 | -3.83919 | 37007 ft | 449 kts | 186° |
| 2026-05-06 16:56 | 45.72508 | -3.84567 | 37006 ft | 450 kts | 186° |
| 2026-05-06 16:57 | 45.66266 | -3.85218 | 36995 ft | 450 kts | 186° |
| 2026-05-06 16:57 | 45.60019 | -3.85869 | 37010 ft | 450 kts | 186° |
| 2026-05-06 16:58 | 45.53767 | -3.86518 | 37007 ft | 451 kts | 186° |
| 2026-05-06 16:58 | 45.47514 | -3.87167 | 37011 ft | 451 kts | 186° |
| 2026-05-06 16:59 | 45.41299 | -3.87809 | 37005 ft | 451 kts | 186° |
| 2026-05-06 16:59 | 45.35046 | -3.88455 | 37005 ft | 450 kts | 186° |
| 2026-05-06 17:00 | 45.28801 | -3.89097 | 37001 ft | 450 kts | 186° |
| 2026-05-06 17:00 | 45.22608 | -3.89734 | 37006 ft | 449 kts | 186° |
| 2026-05-06 17:01 | 45.16390 | -3.90371 | 37011 ft | 448 kts | 186° |
| 2026-05-06 17:01 | 45.10178 | -3.91007 | 36997 ft | 447 kts | 186° |
| 2026-05-06 17:02 | 45.03975 | -3.91640 | 37004 ft | 446 kts | 186° |
| 2026-05-06 17:02 | 44.97781 | -3.92271 | 37005 ft | 446 kts | 186° |
| 2026-05-06 17:03 | 44.91632 | -3.92896 | 36995 ft | 446 kts | 186° |
| 2026-05-06 17:03 | 44.85446 | -3.93523 | 37007 ft | 446 kts | 186° |
| 2026-05-06 17:04 | 44.79257 | -3.94150 | 37005 ft | 446 kts | 186° |
| 2026-05-06 17:04 | 44.73065 | -3.94775 | 37008 ft | 446 kts | 186° |
| 2026-05-06 17:05 | 44.66863 | -3.95400 | 37004 ft | 447 kts | 186° |
| 2026-05-06 17:05 | 44.60700 | -3.96020 | 37005 ft | 447 kts | 186° |
| 2026-05-06 17:06 | 44.54484 | -3.96644 | 37000 ft | 448 kts | 186° |
| 2026-05-06 17:06 | 44.48263 | -3.97267 | 37006 ft | 448 kts | 186° |
| 2026-05-06 17:07 | 44.42039 | -3.97889 | 37001 ft | 449 kts | 186° |
| 2026-05-06 17:07 | 44.35853 | -3.98506 | 37004 ft | 449 kts | 186° |
| 2026-05-06 17:08 | 44.29626 | -3.99147 | 36999 ft | 449 kts | 187° |
| 2026-05-06 17:08 | 44.23404 | -3.99862 | 37003 ft | 449 kts | 187° |
| 2026-05-06 17:09 | 44.17186 | -4.00588 | 37000 ft | 448 kts | 187° |
| 2026-05-06 17:09 | 44.10971 | -4.01304 | 37001 ft | 448 kts | 187° |
| 2026-05-06 17:10 | 44.04840 | -4.02004 | 37002 ft | 448 kts | 187° |
| 2026-05-06 17:10 | 43.98634 | -4.02709 | 37002 ft | 447 kts | 187° |
| 2026-05-06 17:11 | 43.92438 | -4.03411 | 36993 ft | 446 kts | 187° |
| 2026-05-06 17:11 | 43.86247 | -4.04110 | 37000 ft | 446 kts | 187° |
| 2026-05-06 17:12 | 43.80068 | -4.04808 | 37003 ft | 445 kts | 187° |
| 2026-05-06 17:12 | 43.73937 | -4.05498 | 37005 ft | 445 kts | 187° |
| 2026-05-06 17:13 | 43.67771 | -4.06191 | 37012 ft | 444 kts | 187° |
| 2026-05-06 17:13 | 43.61613 | -4.06882 | 37013 ft | 444 kts | 187° |
| 2026-05-06 17:14 | 43.55461 | -4.07571 | 36999 ft | 443 kts | 187° |
| 2026-05-06 17:14 | 43.49318 | -4.08257 | 37022 ft | 443 kts | 187° |
| 2026-05-06 17:15 | 43.43176 | -4.08942 | 37012 ft | 442 kts | 187° |
| 2026-05-06 17:15 | 43.37082 | -4.09620 | 37015 ft | 443 kts | 187° |
| 2026-05-06 17:16 | 43.30943 | -4.10302 | 37025 ft | 442 kts | 187° |
| 2026-05-06 17:16 | 43.24811 | -4.10981 | 37024 ft | 442 kts | 187° |
| 2026-05-06 17:17 | 43.18675 | -4.11660 | 37009 ft | 442 kts | 187° |
| 2026-05-06 17:17 | 43.12541 | -4.12336 | 37003 ft | 442 kts | 187° |
| 2026-05-06 17:18 | 43.06455 | -4.13004 | 37006 ft | 441 kts | 187° |
| 2026-05-06 17:18 | 43.00341 | -4.13677 | 37010 ft | 441 kts | 187° |
| 2026-05-06 17:19 | 42.94224 | -4.14350 | 37004 ft | 442 kts | 188° |
| 2026-05-06 17:19 | 42.88096 | -4.15021 | 37003 ft | 442 kts | 187° |
| 2026-05-06 17:20 | 42.81964 | -4.15691 | 37005 ft | 442 kts | 187° |
| 2026-05-06 17:20 | 42.75829 | -4.16360 | 37001 ft | 442 kts | 187° |
| 2026-05-06 17:21 | 42.69735 | -4.17023 | 36981 ft | 442 kts | 187° |
| 2026-05-06 17:21 | 42.63601 | -4.17689 | 36985 ft | 442 kts | 187° |
| 2026-05-06 17:22 | 42.57468 | -4.18354 | 36979 ft | 442 kts | 187° |
| 2026-05-06 17:22 | 42.51341 | -4.19017 | 36968 ft | 442 kts | 188° |
| 2026-05-06 17:23 | 42.45219 | -4.19678 | 36972 ft | 441 kts | 188° |
| 2026-05-06 17:23 | 42.39140 | -4.20333 | 36961 ft | 441 kts | 188° |
| 2026-05-06 17:24 | 42.33026 | -4.20990 | 36957 ft | 441 kts | 188° |
| 2026-05-06 17:24 | 42.26917 | -4.21646 | 36957 ft | 440 kts | 188° |
| 2026-05-06 17:25 | 42.20810 | -4.22300 | 36956 ft | 440 kts | 188° |
| 2026-05-06 17:25 | 42.14703 | -4.22953 | 36954 ft | 440 kts | 188° |
| 2026-05-06 17:26 | 42.08657 | -4.23599 | 36945 ft | 440 kts | 188° |
| 2026-05-06 17:26 | 42.02560 | -4.24248 | 36949 ft | 439 kts | 188° |
| 2026-05-06 17:27 | 41.96469 | -4.24896 | 36952 ft | 439 kts | 188° |
| 2026-05-06 17:27 | 41.90381 | -4.25542 | 36932 ft | 439 kts | 188° |
| 2026-05-06 17:28 | 41.84302 | -4.26185 | 36945 ft | 438 kts | 188° |
| 2026-05-06 17:28 | 41.78268 | -4.26823 | 36947 ft | 437 kts | 188° |
| 2026-05-06 17:29 | 41.72205 | -4.27463 | 36948 ft | 437 kts | 188° |
| 2026-05-06 17:29 | 41.66150 | -4.28100 | 36943 ft | 436 kts | 188° |
| 2026-05-06 17:30 | 41.60101 | -4.28736 | 36942 ft | 435 kts | 188° |
| 2026-05-06 17:30 | 41.54106 | -4.29365 | 36948 ft | 435 kts | 188° |
| 2026-05-06 17:31 | 41.48078 | -4.29996 | 36931 ft | 434 kts | 188° |
| 2026-05-06 17:31 | 41.42059 | -4.30626 | 36940 ft | 434 kts | 188° |
| 2026-05-06 17:32 | 41.36048 | -4.31253 | 36941 ft | 433 kts | 188° |
| 2026-05-06 17:32 | 41.30038 | -4.31879 | 36944 ft | 433 kts | 188° |
| 2026-05-06 17:33 | 41.24032 | -4.32503 | 36937 ft | 433 kts | 188° |
| 2026-05-06 17:33 | 41.18073 | -4.33121 | 36943 ft | 432 kts | 188° |
| 2026-05-06 17:34 | 41.12068 | -4.33743 | 36941 ft | 433 kts | 188° |
| 2026-05-06 17:34 | 41.06066 | -4.34364 | 36935 ft | 433 kts | 188° |
| 2026-05-06 17:35 | 41.01078 | -4.34879 | 36929 ft | 432 kts | 188° |
| 2026-05-06 17:35 | 40.95080 | -4.35496 | 36936 ft | 432 kts | 188° |
| 2026-05-06 17:36 | 40.85110 | -4.36521 | 36930 ft | 432 kts | 188° |
| 2026-05-06 17:36 | 40.80084 | -4.37037 | 36920 ft | 432 kts | 188° |
| 2026-05-06 17:37 | 40.74129 | -4.37646 | 36920 ft | 432 kts | 188° |
| 2026-05-06 17:37 | 40.68136 | -4.38259 | 36931 ft | 432 kts | 188° |
| 2026-05-06 17:38 | 40.62140 | -4.38871 | 36915 ft | 432 kts | 188° |
| 2026-05-06 17:38 | 40.56144 | -4.39482 | 36912 ft | 432 kts | 188° |
| 2026-05-06 17:39 | 40.50192 | -4.40086 | 36912 ft | 432 kts | 188° |
| 2026-05-06 17:39 | 40.44196 | -4.40694 | 36904 ft | 432 kts | 188° |
| 2026-05-06 17:40 | 40.38193 | -4.41302 | 36873 ft | 433 kts | 188° |
| 2026-05-06 17:40 | 40.32194 | -4.41909 | 36888 ft | 433 kts | 188° |
| 2026-05-06 17:41 | 40.26194 | -4.42514 | 36893 ft | 433 kts | 188° |
| 2026-05-06 17:41 | 40.20193 | -4.43119 | 36879 ft | 432 kts | 188° |
| 2026-05-06 17:42 | 40.14239 | -4.43717 | 36886 ft | 432 kts | 188° |
| 2026-05-06 17:42 | 40.08254 | -4.44318 | 36877 ft | 431 kts | 188° |
| 2026-05-06 17:43 | 40.02272 | -4.44917 | 36876 ft | 431 kts | 188° |
| 2026-05-06 17:43 | 39.96294 | -4.45515 | 36883 ft | 431 kts | 188° |
| 2026-05-06 17:44 | 39.90328 | -4.46111 | 36870 ft | 430 kts | 189° |
| 2026-05-06 17:44 | 39.84406 | -4.46701 | 36880 ft | 429 kts | 188° |
| 2026-05-06 17:45 | 39.78446 | -4.47295 | 36877 ft | 429 kts | 188° |
| 2026-05-06 17:45 | 39.72492 | -4.47886 | 36883 ft | 429 kts | 188° |
| 2026-05-06 17:46 | 39.66545 | -4.48476 | 36876 ft | 428 kts | 189° |
| 2026-05-06 17:46 | 39.60603 | -4.49064 | 36880 ft | 428 kts | 189° |
| 2026-05-06 17:47 | 39.54665 | -4.49650 | 36877 ft | 428 kts | 189° |
| 2026-05-06 17:47 | 39.48766 | -4.50233 | 36856 ft | 428 kts | 189° |
| 2026-05-06 17:48 | 39.42827 | -4.50818 | 36862 ft | 428 kts | 189° |
| 2026-05-06 17:48 | 39.36909 | -4.51399 | 36874 ft | 428 kts | 189° |
| 2026-05-06 17:49 | 39.30971 | -4.51982 | 36877 ft | 428 kts | 189° |
| 2026-05-06 17:49 | 39.25091 | -4.52559 | 36862 ft | 428 kts | 189° |
| 2026-05-06 17:50 | 39.19166 | -4.53138 | 36868 ft | 427 kts | 189° |
| 2026-05-06 17:50 | 39.13237 | -4.53717 | 36863 ft | 427 kts | 189° |
| 2026-05-06 17:51 | 39.07336 | -4.54292 | 36879 ft | 426 kts | 189° |
| 2026-05-06 17:51 | 39.01447 | -4.54866 | 36861 ft | 425 kts | 189° |
| 2026-05-06 17:52 | 38.95585 | -4.55436 | 36881 ft | 425 kts | 189° |
| 2026-05-06 17:52 | 38.89793 | -4.56605 | 36884 ft | 419 kts | 197° |
| 2026-05-06 17:53 | 38.84101 | -4.58299 | 36761 ft | 423 kts | 198° |
| 2026-05-06 17:53 | 38.81220 | -4.59164 | 36480 ft | 427 kts | 197° |
| 2026-05-06 17:53 | 38.78328 | -4.60019 | 36224 ft | 425 kts | 197° |
| 2026-05-06 17:54 | 38.75459 | -4.60852 | 35959 ft | 421 kts | 197° |
| 2026-05-06 17:54 | 38.72618 | -4.61668 | 35716 ft | 417 kts | 197° |
| 2026-05-06 17:54 | 38.69829 | -4.62464 | 35463 ft | 416 kts | 197° |
| 2026-05-06 17:54 | 38.67006 | -4.63268 | 34920 ft | 416 kts | 197° |
| 2026-05-06 17:55 | 38.64186 | -4.64069 | 34424 ft | 415 kts | 197° |
| 2026-05-06 17:55 | 38.61364 | -4.64870 | 33816 ft | 416 kts | 197° |
| 2026-05-06 17:55 | 38.58537 | -4.65673 | 33181 ft | 416 kts | 197° |
| 2026-05-06 17:55 | 38.55726 | -4.66468 | 32713 ft | 412 kts | 197° |
| 2026-05-06 17:56 | 38.52948 | -4.67253 | 32311 ft | 407 kts | 197° |
| 2026-05-06 17:56 | 38.50199 | -4.68029 | 31867 ft | 403 kts | 197° |
| 2026-05-06 17:56 | 38.47512 | -4.68787 | 31450 ft | 399 kts | 197° |
| 2026-05-06 17:56 | 38.44817 | -4.69548 | 31033 ft | 395 kts | 197° |
| 2026-05-06 17:57 | 38.42145 | -4.70302 | 30622 ft | 392 kts | 197° |
| 2026-05-06 17:57 | 38.39497 | -4.71050 | 30212 ft | 388 kts | 197° |
| 2026-05-06 17:57 | 38.36867 | -4.71791 | 29778 ft | 385 kts | 197° |
| 2026-05-06 17:57 | 38.34262 | -4.72525 | 29310 ft | 382 kts | 197° |
| 2026-05-06 17:58 | 38.31685 | -4.73250 | 28888 ft | 377 kts | 197° |
| 2026-05-06 17:58 | 38.29135 | -4.73967 | 28468 ft | 373 kts | 197° |
| 2026-05-06 17:58 | 38.26646 | -4.74667 | 28029 ft | 370 kts | 197° |
| 2026-05-06 17:58 | 38.24145 | -4.75370 | 27622 ft | 366 kts | 197° |
| 2026-05-06 17:59 | 38.21665 | -4.76066 | 27194 ft | 364 kts | 197° |
| 2026-05-06 17:59 | 38.19203 | -4.76758 | 26785 ft | 361 kts | 197° |
| 2026-05-06 17:59 | 38.16759 | -4.77443 | 26364 ft | 358 kts | 196° |
| 2026-05-06 17:59 | 38.14334 | -4.78121 | 25971 ft | 356 kts | 196° |
| 2026-05-06 18:00 | 38.11925 | -4.78796 | 25569 ft | 354 kts | 196° |
| 2026-05-06 18:00 | 38.09524 | -4.79469 | 25163 ft | 352 kts | 196° |
| 2026-05-06 18:00 | 38.07168 | -4.80128 | 24764 ft | 351 kts | 196° |
| 2026-05-06 18:00 | 38.04788 | -4.80794 | 24361 ft | 350 kts | 196° |
| 2026-05-06 18:01 | 38.02415 | -4.81456 | 23961 ft | 349 kts | 196° |
| 2026-05-06 18:01 | 38.00047 | -4.82117 | 23542 ft | 348 kts | 195° |
| 2026-05-06 18:01 | 37.97686 | -4.82774 | 23107 ft | 346 kts | 195° |
| 2026-05-06 18:01 | 37.95337 | -4.83429 | 22675 ft | 345 kts | 195° |
| 2026-05-06 18:02 | 37.92999 | -4.84080 | 22261 ft | 343 kts | 195° |
| 2026-05-06 18:02 | 37.90672 | -4.84728 | 21857 ft | 341 kts | 195° |
| 2026-05-06 18:02 | 37.88359 | -4.85371 | 21461 ft | 339 kts | 195° |
| 2026-05-06 18:02 | 37.86060 | -4.86010 | 21072 ft | 337 kts | 195° |
| 2026-05-06 18:03 | 37.83803 | -4.86637 | 20685 ft | 336 kts | 195° |
| 2026-05-06 18:03 | 37.81533 | -4.87267 | 20311 ft | 334 kts | 195° |
| 2026-05-06 18:03 | 37.79267 | -4.87895 | 19933 ft | 332 kts | 195° |
| 2026-05-06 18:03 | 37.77026 | -4.88517 | 19562 ft | 331 kts | 194° |
| 2026-05-06 18:04 | 37.74784 | -4.89138 | 19187 ft | 330 kts | 194° |
| 2026-05-06 18:04 | 37.72545 | -4.89758 | 18815 ft | 329 kts | 194° |
| 2026-05-06 18:04 | 37.70309 | -4.90377 | 18439 ft | 328 kts | 194° |
| 2026-05-06 18:04 | 37.68079 | -4.90993 | 18039 ft | 328 kts | 194° |
| 2026-05-06 18:05 | 37.65880 | -4.91601 | 17626 ft | 327 kts | 194° |
| 2026-05-06 18:05 | 37.63667 | -4.92213 | 17229 ft | 325 kts | 194° |
| 2026-05-06 18:05 | 37.61460 | -4.92821 | 16848 ft | 323 kts | 194° |
| 2026-05-06 18:05 | 37.59270 | -4.93425 | 16480 ft | 321 kts | 193° |
| 2026-05-06 18:06 | 37.57091 | -4.94026 | 16113 ft | 320 kts | 193° |
| 2026-05-06 18:06 | 37.54924 | -4.94623 | 15752 ft | 318 kts | 193° |
| 2026-05-06 18:06 | 37.52768 | -4.95217 | 15396 ft | 317 kts | 193° |
| 2026-05-06 18:06 | 37.50620 | -4.95808 | 15047 ft | 315 kts | 193° |
| 2026-05-06 18:07 | 37.48480 | -4.96397 | 14689 ft | 314 kts | 193° |
| 2026-05-06 18:07 | 37.46374 | -4.96976 | 14338 ft | 313 kts | 193° |
| 2026-05-06 18:07 | 37.44245 | -4.97561 | 13982 ft | 313 kts | 193° |
| 2026-05-06 18:07 | 37.42124 | -4.98143 | 13622 ft | 312 kts | 193° |
| 2026-05-06 18:08 | 37.40007 | -4.98724 | 13227 ft | 311 kts | 193° |
| 2026-05-06 18:08 | 37.37896 | -4.99303 | 12851 ft | 310 kts | 193° |
| 2026-05-06 18:08 | 37.35798 | -4.99878 | 12559 ft | 306 kts | 193° |
| 2026-05-06 18:08 | 37.33730 | -5.00445 | 12249 ft | 303 kts | 193° |
| 2026-05-06 18:09 | 37.31682 | -5.01006 | 12028 ft | 297 kts | 193° |
| 2026-05-06 18:09 | 37.29692 | -5.01550 | 11900 ft | 289 kts | 193° |
| 2026-05-06 18:09 | 37.27758 | -5.02078 | 11777 ft | 280 kts | 193° |
| 2026-05-06 18:09 | 37.25889 | -5.02524 | 11575 ft | 276 kts | 186° |
| 2026-05-06 18:10 | 37.23968 | -5.02578 | 11283 ft | 276 kts | 180° |
| 2026-05-06 18:10 | 37.22053 | -5.02507 | 10991 ft | 275 kts | 179° |
| 2026-05-06 18:10 | 37.20144 | -5.02430 | 10710 ft | 274 kts | 179° |
| 2026-05-06 18:10 | 37.18238 | -5.02369 | 10418 ft | 274 kts | 179° |
| 2026-05-06 18:11 | 37.16337 | -5.02321 | 10130 ft | 273 kts | 179° |
| 2026-05-06 18:11 | 37.14438 | -5.02285 | 9849 ft | 273 kts | 179° |
| 2026-05-06 18:11 | 37.12541 | -5.02254 | 9568 ft | 272 kts | 180° |
| 2026-05-06 18:11 | 37.10678 | -5.02227 | 9447 ft | 264 kts | 179° |
| 2026-05-06 18:12 | 37.08890 | -5.02202 | 9326 ft | 257 kts | 180° |
| 2026-05-06 18:12 | 37.07133 | -5.01997 | 9185 ft | 251 kts | 161° |
| 2026-05-06 18:12 | 37.05671 | -5.00871 | 9015 ft | 248 kts | 138° |
| 2026-05-06 18:12 | 37.04537 | -4.99250 | 8772 ft | 248 kts | 128° |
| 2026-05-06 18:13 | 37.03521 | -4.97512 | 8520 ft | 247 kts | 128° |
| 2026-05-06 18:13 | 37.02521 | -4.95766 | 8271 ft | 246 kts | 127° |
| 2026-05-06 18:13 | 37.01522 | -4.94033 | 8019 ft | 245 kts | 127° |
| 2026-05-06 18:13 | 37.00518 | -4.92310 | 7769 ft | 244 kts | 127° |
| 2026-05-06 18:14 | 36.99528 | -4.90624 | 7530 ft | 243 kts | 127° |
| 2026-05-06 18:14 | 36.98526 | -4.88921 | 7277 ft | 242 kts | 128° |
| 2026-05-06 18:14 | 36.97529 | -4.87230 | 7045 ft | 241 kts | 127° |
| 2026-05-06 18:14 | 36.96532 | -4.85544 | 6801 ft | 241 kts | 127° |
| 2026-05-06 18:15 | 36.95536 | -4.83865 | 6560 ft | 240 kts | 127° |
| 2026-05-06 18:15 | 36.94539 | -4.82187 | 6319 ft | 240 kts | 127° |
| 2026-05-06 18:15 | 36.93531 | -4.80531 | 6063 ft | 239 kts | 133° |
| 2026-05-06 18:15 | 36.92149 | -4.79431 | 5802 ft | 239 kts | 162° |
| 2026-05-06 18:16 | 36.90566 | -4.78777 | 5585 ft | 247 kts | 161° |
| 2026-05-06 18:16 | 36.88934 | -4.78079 | 5310 ft | 248 kts | 160° |
| 2026-05-06 18:16 | 36.87302 | -4.77372 | 5049 ft | 249 kts | 160° |
| 2026-05-06 18:16 | 36.85731 | -4.76520 | 4859 ft | 244 kts | 151° |
| 2026-05-06 18:17 | 36.84253 | -4.75504 | 4692 ft | 241 kts | 150° |
| 2026-05-06 18:17 | 36.82803 | -4.74497 | 4511 ft | 237 kts | 150° |
| 2026-05-06 18:17 | 36.81359 | -4.73491 | 4231 ft | 239 kts | 150° |
| 2026-05-06 18:17 | 36.79899 | -4.72493 | 3956 ft | 240 kts | 151° |
| 2026-05-06 18:18 | 36.78445 | -4.71506 | 3709 ft | 239 kts | 151° |
| 2026-05-06 18:18 | 36.77168 | -4.70226 | 3430 ft | 235 kts | 127° |
| 2026-05-06 18:18 | 36.76514 | -4.68412 | 3138 ft | 230 kts | 111° |
| 2026-05-06 18:18 | 36.75829 | -4.66645 | 2822 ft | 225 kts | 120° |
| 2026-05-06 18:19 | 36.75079 | -4.64968 | 2498 ft | 217 kts | 120° |
| 2026-05-06 18:19 | 36.74382 | -4.63345 | 2245 ft | 211 kts | 120° |
| 2026-05-06 18:19 | 36.73718 | -4.61767 | 1979 ft | 200 kts | 120° |
| 2026-05-06 18:19 | 36.73092 | -4.60278 | 1718 ft | 189 kts | 119° |
| 2026-05-06 18:20 | 36.72509 | -4.58891 | 1482 ft | 171 kts | 119° |
| 2026-05-06 18:20 | 36.71976 | -4.57627 | 1304 ft | 158 kts | 117° |
| 2026-05-06 18:20 | 36.71476 | -4.56436 | 1064 ft | 155 kts | 118° |
| 2026-05-06 18:20 | 36.70978 | -4.55250 | 862 ft | 153 kts | 118° |
| 2026-05-06 18:21 | 36.70485 | -4.54079 | 672 ft | 152 kts | 116° |
| 2026-05-06 18:21 | 36.69995 | -4.52913 | 469 ft | 152 kts | 116° |
| 2026-05-06 18:21 | 36.69506 | -4.51745 | 273 ft | 153 kts | 116° |
| 2026-05-06 18:21 | 36.69022 | -4.50583 | 64 ft | 149 kts | 116° |
| 2026-05-06 18:22 | 36.68601 | -4.49584 | 46 ft | 102 kts | 117° |
| 2026-05-06 18:22 | 36.68353 | -4.49022 | 43 ft | 57 kts | 130° |
| 2026-05-06 18:22 | 36.68165 | -4.48850 | 38 ft | 18 kts | 152° |
| 2026-05-06 18:22 | 36.68074 | -4.48852 | 37 ft | 13 kts | 200° |
| 2026-05-06 18:23 | 36.67996 | -4.48903 | 41 ft | 13 kts | 223° |
| 2026-05-06 18:23 | 36.68010 | -4.49003 | 40 ft | 12 kts | 297° |
| 2026-05-06 18:23 | 36.68049 | -4.49097 | 40 ft | 12 kts | 297° |
| 2026-05-06 18:23 | 36.68088 | -4.49190 | 41 ft | 12 kts | 297° |
| 2026-05-06 18:24 | 36.68126 | -4.49280 | 41 ft | 12 kts | 297° |
| 2026-05-06 18:24 | 36.68163 | -4.49366 | 40 ft | 11 kts | 297° |
| 2026-05-06 18:24 | 36.68156 | -4.49454 | 41 ft | 11 kts | 231° |
| 2026-05-06 18:24 | 36.68102 | -4.49516 | 41 ft | 10 kts | 222° |
| 2026-05-06 18:25 | 36.68050 | -4.49574 | 41 ft | 10 kts | 221° |
| 2026-05-06 18:25 | 36.67992 | -4.49638 | 41 ft | 12 kts | 221° |
| 2026-05-06 18:25 | 36.67932 | -4.49705 | 41 ft | 11 kts | 222° |
| 2026-05-06 18:25 | 36.67873 | -4.49769 | 41 ft | 11 kts | 221° |
| 2026-05-06 18:26 | 36.67817 | -4.49831 | 41 ft | 11 kts | 221° |
| 2026-05-06 18:26 | 36.67752 | -4.49868 | 41 ft | 10 kts | 199° |
| 2026-05-06 18:26 | 36.67689 | -4.49891 | 42 ft | 10 kts | 145° |
| 2026-05-06 18:26 | 36.67642 | -4.49826 | 42 ft | 10 kts | 131° |
| 2026-05-06 18:27 | 36.67597 | -4.49764 | 42 ft | 10 kts | 132° |
| 2026-05-06 18:27 | 36.67553 | -4.49702 | 42 ft | 9 kts | 131° |
| 2026-05-06 18:27 | 36.67510 | -4.49641 | 42 ft | 9 kts | 131° |
| 2026-05-06 18:27 | 36.67468 | -4.49582 | 41 ft | 9 kts | 131° |
| 2026-05-06 18:28 | 36.67428 | -4.49525 | 41 ft | 9 kts | 131° |
| 2026-05-06 18:28 | 36.67388 | -4.49470 | 42 ft | 8 kts | 132° |
| 2026-05-06 18:28 | 36.67350 | -4.49417 | 42 ft | 8 kts | 132° |
| 2026-05-06 18:28 | 36.67325 | -4.49358 | 41 ft | 8 kts | 84° |
| 2026-05-06 18:29 | 36.67359 | -4.49306 | 41 ft | 8 kts | 65° |
| 2026-05-06 18:29 | 36.67351 | -4.49241 | 41 ft | 8 kts | 80° |
| 2026-05-06 18:29 | 36.67366 | -4.49184 | 41 ft | 7 kts | 106° |
| 2026-05-06 18:29 | 36.67348 | -4.49136 | 41 ft | 1 kts | 116° |
| 2026-05-06 18:30 | 36.67347 | -4.49133 | 41 ft | 0 kts | 116° |